sensor_id;sensor_type;location;lat;lon;timestamp;pressure;altitude;pressure_sealevel;temperature;humidity
49461;BME280;35355;49.198;-0.368;2024-02-21T00:02:19;101849.25;;;10.66;72.11
49461;BME280;35355;49.198;-0.368;2024-02-21T00:04:45;101839.63;;;10.64;71.61
49461;BME280;35355;49.198;-0.368;2024-02-21T00:07:10;101839.63;;;10.64;71.83
49461;BME280;35355;49.198;-0.368;2024-02-21T00:09:35;101823.25;;;10.64;71.79
49461;BME280;35355;49.198;-0.368;2024-02-21T00:12:01;101842.59;;;10.62;72.18
49461;BME280;35355;49.198;-0.368;2024-02-21T00:14:26;101844.13;;;10.58;71.79
49461;BME280;35355;49.198;-0.368;2024-02-21T00:16:52;101822.19;;;10.53;71.80
49461;BME280;35355;49.198;-0.368;2024-02-21T00:19:17;101819.56;;;10.58;71.70
49461;BME280;35355;49.198;-0.368;2024-02-21T00:21:42;101821.72;;;10.56;71.52
49461;BME280;35355;49.198;-0.368;2024-02-21T00:24:07;101809.13;;;10.55;71.60
49461;BME280;35355;49.198;-0.368;2024-02-21T00:26:33;101799.88;;;10.56;71.89
49461;BME280;35355;49.198;-0.368;2024-02-21T00:28:58;101809.72;;;10.57;72.07
49461;BME280;35355;49.198;-0.368;2024-02-21T00:31:23;101793.59;;;10.56;71.85
49461;BME280;35355;49.198;-0.368;2024-02-21T00:33:49;101784.53;;;10.55;71.81
49461;BME280;35355;49.198;-0.368;2024-02-21T00:36:15;101758.34;;;10.54;71.34
49461;BME280;35355;49.198;-0.368;2024-02-21T00:38:41;101758.53;;;10.52;72.07
49461;BME280;35355;49.198;-0.368;2024-02-21T00:41:06;101765.09;;;10.51;72.06
49461;BME280;35355;49.198;-0.368;2024-02-21T00:43:32;101742.41;;;10.51;71.63
49461;BME280;35355;49.198;-0.368;2024-02-21T00:45:57;101739.09;;;10.49;71.57
49461;BME280;35355;49.198;-0.368;2024-02-21T00:48:22;101740.75;;;10.50;71.84
49461;BME280;35355;49.198;-0.368;2024-02-21T00:50:48;101740.75;;;10.50;71.98
49461;BME280;35355;49.198;-0.368;2024-02-21T00:53:13;101741.59;;;10.50;72.02
49461;BME280;35355;49.198;-0.368;2024-02-21T00:55:38;101757.97;;;10.50;72.14
49461;BME280;35355;49.198;-0.368;2024-02-21T00:58:05;101759.63;;;10.51;72.19
49461;BME280;35355;49.198;-0.368;2024-02-21T01:00:30;101755.00;;;10.52;72.12
49461;BME280;35355;49.198;-0.368;2024-02-21T01:02:56;101763.19;;;10.52;72.27
49461;BME280;35355;49.198;-0.368;2024-02-21T01:05:21;101752.88;;;10.54;72.35
49461;BME280;35355;49.198;-0.368;2024-02-21T01:07:47;101749.06;;;10.55;71.92
49461;BME280;35355;49.198;-0.368;2024-02-21T01:10:13;101740.03;;;10.55;71.71
49461;BME280;35355;49.198;-0.368;2024-02-21T01:12:38;101717.38;;;10.54;71.68
49461;BME280;35355;49.198;-0.368;2024-02-21T01:15:04;101714.66;;;10.54;71.89
49461;BME280;35355;49.198;-0.368;2024-02-21T01:17:29;101708.00;;;10.50;72.05
49461;BME280;35355;49.198;-0.368;2024-02-21T01:19:55;101693.03;;;10.52;71.94
49461;BME280;35355;49.198;-0.368;2024-02-21T01:22:20;101676.06;;;10.50;72.02
49461;BME280;35355;49.198;-0.368;2024-02-21T01:24:45;101703.13;;;10.52;71.71
49461;BME280;35355;49.198;-0.368;2024-02-21T01:27:11;101716.19;;;10.50;71.38
49461;BME280;35355;49.198;-0.368;2024-02-21T01:29:36;101694.13;;;10.51;72.03
49461;BME280;35355;49.198;-0.368;2024-02-21T01:32:02;101693.88;;;10.53;71.75
49461;BME280;35355;49.198;-0.368;2024-02-21T01:34:27;101691.16;;;10.53;71.56
49461;BME280;35355;49.198;-0.368;2024-02-21T01:36:52;101696.59;;;10.53;71.69
49461;BME280;35355;49.198;-0.368;2024-02-21T01:39:18;101713.00;;;10.53;71.32
49461;BME280;35355;49.198;-0.368;2024-02-21T01:41:43;101695.56;;;10.54;71.61
49461;BME280;35355;49.198;-0.368;2024-02-21T01:44:08;101689.00;;;10.55;71.37
49461;BME280;35355;49.198;-0.368;2024-02-21T01:46:34;101683.06;;;10.58;71.59
49461;BME280;35355;49.198;-0.368;2024-02-21T01:49:00;101682.00;;;10.59;71.26
49461;BME280;35355;49.198;-0.368;2024-02-21T01:51:26;101668.34;;;10.59;71.40
49461;BME280;35355;49.198;-0.368;2024-02-21T01:53:51;101662.66;;;10.61;71.24
49461;BME280;35355;49.198;-0.368;2024-02-21T01:56:18;101650.19;;;10.65;71.44
49461;BME280;35355;49.198;-0.368;2024-02-21T01:58:45;101645.06;;;10.68;71.35
49461;BME280;35355;49.198;-0.368;2024-02-21T02:01:11;101644.34;;;10.73;71.51
49461;BME280;35355;49.198;-0.368;2024-02-21T02:03:37;101651.22;;;10.76;71.18
49461;BME280;35355;49.198;-0.368;2024-02-21T02:06:04;101649.09;;;10.78;71.61
49461;BME280;35355;49.198;-0.368;2024-02-21T02:08:31;101640.19;;;10.82;71.55
49461;BME280;35355;49.198;-0.368;2024-02-21T02:10:56;101629.84;;;10.84;71.29
49461;BME280;35355;49.198;-0.368;2024-02-21T02:13:22;101623.66;;;10.89;71.21
49461;BME280;35355;49.198;-0.368;2024-02-21T02:15:48;101625.31;;;10.90;71.04
49461;BME280;35355;49.198;-0.368;2024-02-21T02:18:15;101613.91;;;10.93;71.05
49461;BME280;35355;49.198;-0.368;2024-02-21T02:20:41;101609.00;;;10.95;70.88
49461;BME280;35355;49.198;-0.368;2024-02-21T02:23:11;101586.25;;;10.90;71.37
49461;BME280;35355;49.198;-0.368;2024-02-21T02:25:37;101585.03;;;10.97;70.84
49461;BME280;35355;49.198;-0.368;2024-02-21T02:28:06;101577.66;;;10.98;71.21
49461;BME280;35355;49.198;-0.368;2024-02-21T02:30:35;101567.53;;;10.98;71.10
49461;BME280;35355;49.198;-0.368;2024-02-21T02:33:05;101575.28;;;11.01;70.93
49461;BME280;35355;49.198;-0.368;2024-02-21T02:35:30;101563.25;;;11.02;70.70
49461;BME280;35355;49.198;-0.368;2024-02-21T02:37:56;101561.63;;;11.01;70.83
49461;BME280;35355;49.198;-0.368;2024-02-21T02:40:21;101559.22;;;11.05;71.01
49461;BME280;35355;49.198;-0.368;2024-02-21T02:42:47;101560.63;;;11.08;70.73
49461;BME280;35355;49.198;-0.368;2024-02-21T02:45:14;101556.81;;;11.09;71.13
49461;BME280;35355;49.198;-0.368;2024-02-21T02:47:40;101549.47;;;11.09;71.14
49461;BME280;35355;49.198;-0.368;2024-02-21T02:50:06;101552.19;;;11.09;70.71
49461;BME280;35355;49.198;-0.368;2024-02-21T02:52:31;101530.09;;;11.11;70.99
49461;BME280;35355;49.198;-0.368;2024-02-21T02:54:57;101541.03;;;11.11;71.14
49461;BME280;35355;49.198;-0.368;2024-02-21T02:57:23;101537.22;;;11.12;71.10
49461;BME280;35355;49.198;-0.368;2024-02-21T02:59:48;101524.38;;;11.12;70.95
49461;BME280;35355;49.198;-0.368;2024-02-21T03:02:14;101529.03;;;11.12;71.47
49461;BME280;35355;49.198;-0.368;2024-02-21T03:04:41;101529.03;;;11.12;70.82
49461;BME280;35355;49.198;-0.368;2024-02-21T03:07:07;101518.66;;;11.14;71.31
49461;BME280;35355;49.198;-0.368;2024-02-21T03:09:32;101525.81;;;11.15;71.15
49461;BME280;35355;49.198;-0.368;2024-02-21T03:11:57;101516.50;;;11.16;70.94
49461;BME280;35355;49.198;-0.368;2024-02-21T03:14:28;101505.00;;;11.14;71.14
49461;BME280;35355;49.198;-0.368;2024-02-21T03:16:53;101498.22;;;11.16;71.08
49461;BME280;35355;49.198;-0.368;2024-02-21T03:19:19;101493.81;;;11.15;71.00
49461;BME280;35355;49.198;-0.368;2024-02-21T03:21:44;101497.97;;;11.18;70.99
49461;BME280;35355;49.198;-0.368;2024-02-21T03:24:10;101493.59;;;11.17;70.92
49461;BME280;35355;49.198;-0.368;2024-02-21T03:26:35;101467.31;;;11.16;71.44
49461;BME280;35355;49.198;-0.368;2024-02-21T03:29:00;101468.41;;;11.15;71.42
49461;BME280;35355;49.198;-0.368;2024-02-21T03:31:26;101458.31;;;11.15;71.55
49461;BME280;35355;49.198;-0.368;2024-02-21T03:33:51;101444.41;;;11.17;71.29
49461;BME280;35355;49.198;-0.368;2024-02-21T03:36:16;101459.72;;;11.18;71.41
49461;BME280;35355;49.198;-0.368;2024-02-21T03:38:42;101445.47;;;11.16;71.25
49461;BME280;35355;49.198;-0.368;2024-02-21T03:41:07;101445.22;;;11.17;71.45
49461;BME280;35355;49.198;-0.368;2024-02-21T03:43:32;101450.94;;;11.16;71.55
49461;BME280;35355;49.198;-0.368;2024-02-21T03:45:58;101452.84;;;11.15;71.52
49461;BME280;35355;49.198;-0.368;2024-02-21T03:48:23;101453.66;;;11.16;71.35
49461;BME280;35355;49.198;-0.368;2024-02-21T03:50:48;101450.09;;;11.15;71.48
49461;BME280;35355;49.198;-0.368;2024-02-21T03:53:14;101452.03;;;11.15;71.63
49461;BME280;35355;49.198;-0.368;2024-02-21T03:55:39;101452.03;;;11.15;71.39
49461;BME280;35355;49.198;-0.368;2024-02-21T03:58:04;101459.13;;;11.16;71.66
49461;BME280;35355;49.198;-0.368;2024-02-21T04:00:30;101450.34;;;11.14;71.81
49461;BME280;35355;49.198;-0.368;2024-02-21T04:02:55;101426.03;;;11.12;71.59
49461;BME280;35355;49.198;-0.368;2024-02-21T04:05:21;101433.16;;;11.13;71.62
49461;BME280;35355;49.198;-0.368;2024-02-21T04:07:46;101439.44;;;11.14;71.92
49461;BME280;35355;49.198;-0.368;2024-02-21T04:10:12;101434.53;;;11.16;72.05
49461;BME280;35355;49.198;-0.368;2024-02-21T04:12:37;101420.06;;;11.15;71.88
49461;BME280;35355;49.198;-0.368;2024-02-21T04:15:04;101406.53;;;11.09;71.87
49461;BME280;35355;49.198;-0.368;2024-02-21T04:17:29;101420.63;;;11.17;72.05
49461;BME280;35355;49.198;-0.368;2024-02-21T04:20:04;101413.78;;;11.15;72.13
49461;BME280;35355;49.198;-0.368;2024-02-21T04:22:31;101416.25;;;11.16;71.98
49461;BME280;35355;49.198;-0.368;2024-02-21T04:24:59;101413.78;;;11.15;71.58
49461;BME280;35355;49.198;-0.368;2024-02-21T04:27:24;101414.34;;;11.17;72.05
49461;BME280;35355;49.198;-0.368;2024-02-21T04:29:49;101400.69;;;11.17;72.03
49461;BME280;35355;49.198;-0.368;2024-02-21T04:32:15;101402.34;;;11.18;71.68
49461;BME280;35355;49.198;-0.368;2024-02-21T04:34:41;101401.50;;;11.17;71.91
49461;BME280;35355;49.198;-0.368;2024-02-21T04:37:06;101407.81;;;11.18;72.05
49461;BME280;35355;49.198;-0.368;2024-02-21T04:39:32;101388.69;;;11.18;72.03
49461;BME280;35355;49.198;-0.368;2024-02-21T04:41:57;101389.25;;;11.20;71.88
49461;BME280;35355;49.198;-0.368;2024-02-21T04:44:23;101383.78;;;11.20;71.97
49461;BME280;35355;49.198;-0.368;2024-02-21T04:46:48;101388.44;;;11.19;71.87
49461;BME280;35355;49.198;-0.368;2024-02-21T04:49:14;101380.47;;;11.18;72.17
49461;BME280;35355;49.198;-0.368;2024-02-21T04:51:40;101382.13;;;11.19;71.75
49461;BME280;35355;49.198;-0.368;2024-02-21T04:54:06;101377.50;;;11.19;72.04
49461;BME280;35355;49.198;-0.368;2024-02-21T04:56:31;101374.75;;;11.19;72.23
49461;BME280;35355;49.198;-0.368;2024-02-21T04:58:57;101375.03;;;11.18;72.18
49461;BME280;35355;49.198;-0.368;2024-02-21T05:01:22;101361.91;;;11.20;71.97
49461;BME280;35355;49.198;-0.368;2024-02-21T05:03:47;101365.72;;;11.19;71.96
49461;BME280;35355;49.198;-0.368;2024-02-21T05:06:13;101365.97;;;11.17;71.92
49461;BME280;35355;49.198;-0.368;2024-02-21T05:08:38;101351.50;;;11.17;72.21
49461;BME280;35355;49.198;-0.368;2024-02-21T05:11:03;101358.88;;;11.16;71.82
49461;BME280;35355;49.198;-0.368;2024-02-21T05:13:29;101359.13;;;11.15;71.78
49461;BME280;35355;49.198;-0.368;2024-02-21T05:15:54;101364.59;;;11.15;72.17
49461;BME280;35355;49.198;-0.368;2024-02-21T05:18:20;101350.94;;;11.15;71.87
49461;BME280;35355;49.198;-0.368;2024-02-21T05:20:46;101355.53;;;11.14;72.02
49461;BME280;35355;49.198;-0.368;2024-02-21T05:23:11;101349.81;;;11.16;72.35
49461;BME280;35355;49.198;-0.368;2024-02-21T05:25:37;101347.09;;;11.16;72.29
49461;BME280;35355;49.198;-0.368;2024-02-21T05:28:03;101347.94;;;11.16;72.14
49461;BME280;35355;49.198;-0.368;2024-02-21T05:30:30;101335.09;;;11.17;72.36
49461;BME280;35355;49.198;-0.368;2024-02-21T05:32:56;101331.56;;;11.16;72.16
49461;BME280;35355;49.198;-0.368;2024-02-21T05:35:28;101320.88;;;11.15;71.79
49461;BME280;35355;49.198;-0.368;2024-02-21T05:37:53;101323.59;;;11.15;72.00
49461;BME280;35355;49.198;-0.368;2024-02-21T05:40:19;101312.94;;;11.13;72.37
49461;BME280;35355;49.198;-0.368;2024-02-21T05:42:44;101301.16;;;11.13;71.84
49461;BME280;35355;49.198;-0.368;2024-02-21T05:45:09;101292.97;;;11.13;72.21
49461;BME280;35355;49.198;-0.368;2024-02-21T05:47:35;101295.69;;;11.13;71.97
49461;BME280;35355;49.198;-0.368;2024-02-21T05:50:00;101286.69;;;11.12;72.16
49461;BME280;35355;49.198;-0.368;2024-02-21T05:52:26;101279.28;;;11.13;71.99
49461;BME280;35355;49.198;-0.368;2024-02-21T05:54:51;101273.84;;;11.13;72.44
49461;BME280;35355;49.198;-0.368;2024-02-21T05:57:19;101273.84;;;11.13;72.26
49461;BME280;35355;49.198;-0.368;2024-02-21T05:59:45;101268.13;;;11.14;72.37
49461;BME280;35355;49.198;-0.368;2024-02-21T06:02:10;101268.38;;;11.13;72.45
49461;BME280;35355;49.198;-0.368;2024-02-21T06:04:36;101258.28;;;11.13;72.62
49461;BME280;35355;49.198;-0.368;2024-02-21T06:07:01;101253.63;;;11.14;72.53
49461;BME280;35355;49.198;-0.368;2024-02-21T06:09:27;101249.84;;;11.15;72.30
49461;BME280;35355;49.198;-0.368;2024-02-21T06:11:53;101238.06;;;11.14;72.30
49461;BME280;35355;49.198;-0.368;2024-02-21T06:14:18;101241.91;;;11.13;72.65
49461;BME280;35355;49.198;-0.368;2024-02-21T06:16:44;101230.13;;;11.13;72.21
49461;BME280;35355;49.198;-0.368;2024-02-21T06:19:09;101225.75;;;11.12;72.67
49461;BME280;35355;49.198;-0.368;2024-02-21T06:21:35;101215.91;;;11.11;72.73
49461;BME280;35355;49.198;-0.368;2024-02-21T06:24:00;101218.03;;;11.09;72.22
49461;BME280;35355;49.198;-0.368;2024-02-21T06:26:25;101214.75;;;11.06;72.46
49461;BME280;35355;49.198;-0.368;2024-02-21T06:28:51;101211.19;;;11.06;72.73
49461;BME280;35355;49.198;-0.368;2024-02-21T06:31:16;101213.94;;;11.06;72.85
49461;BME280;35355;49.198;-0.368;2024-02-21T06:33:42;101198.88;;;11.03;72.51
49461;BME280;35355;49.198;-0.368;2024-02-21T06:36:08;101204.06;;;11.05;72.47
49461;BME280;35355;49.198;-0.368;2024-02-21T06:38:33;101193.41;;;11.03;72.69
49461;BME280;35355;49.198;-0.368;2024-02-21T06:40:59;101191.75;;;11.02;72.81
49461;BME280;35355;49.198;-0.368;2024-02-21T06:43:25;101189.59;;;11.04;72.99
49461;BME280;35355;49.198;-0.368;2024-02-21T06:45:51;101187.94;;;11.03;72.61
49461;BME280;35355;49.198;-0.368;2024-02-21T06:48:17;101185.22;;;11.03;72.99
49461;BME280;35355;49.198;-0.368;2024-02-21T06:50:43;101180.81;;;11.02;72.79
49461;BME280;35355;49.198;-0.368;2024-02-21T06:53:08;101178.09;;;11.02;72.83
49461;BME280;35355;49.198;-0.368;2024-02-21T06:55:34;101172.06;;;11.00;72.74
49461;BME280;35355;49.198;-0.368;2024-02-21T06:57:59;101171.56;;;11.03;72.67
49461;BME280;35355;49.198;-0.368;2024-02-21T07:00:24;101155.41;;;11.02;72.85
49461;BME280;35355;49.198;-0.368;2024-02-21T07:02:50;101145.56;;;11.01;72.90
49461;BME280;35355;49.198;-0.368;2024-02-21T07:05:16;101142.00;;;11.00;72.65
49461;BME280;35355;49.198;-0.368;2024-02-21T07:07:41;101140.09;;;11.01;72.54
49461;BME280;35355;49.198;-0.368;2024-02-21T07:10:07;101124.81;;;11.00;72.98
49461;BME280;35355;49.198;-0.368;2024-02-21T07:12:33;101131.34;;;10.99;73.03
49461;BME280;35355;49.198;-0.368;2024-02-21T07:14:58;101125.03;;;10.98;72.77
49461;BME280;35355;49.198;-0.368;2024-02-21T07:17:24;101130.50;;;10.98;72.73
49461;BME280;35355;49.198;-0.368;2024-02-21T07:19:49;101117.94;;;10.97;72.61
49461;BME280;35355;49.198;-0.368;2024-02-21T07:22:14;101119.81;;;10.97;72.91
49461;BME280;35355;49.198;-0.368;2024-02-21T07:24:40;101111.63;;;10.97;72.97
49461;BME280;35355;49.198;-0.368;2024-02-21T07:27:05;101105.34;;;10.96;72.91
49461;BME280;35355;49.198;-0.368;2024-02-21T07:29:30;101107.28;;;10.96;72.65
49461;BME280;35355;49.198;-0.368;2024-02-21T07:31:56;101100.97;;;10.95;72.83
49461;BME280;35355;49.198;-0.368;2024-02-21T07:34:21;101100.41;;;10.93;72.75
49461;BME280;35355;49.198;-0.368;2024-02-21T07:36:46;101094.94;;;10.93;72.60
49461;BME280;35355;49.198;-0.368;2024-02-21T07:39:12;101093.28;;;10.92;72.87
49461;BME280;35355;49.198;-0.368;2024-02-21T07:41:37;101094.94;;;10.93;72.47
49461;BME280;35355;49.198;-0.368;2024-02-21T07:44:04;101088.66;;;10.93;72.81
49461;BME280;35355;49.198;-0.368;2024-02-21T07:46:30;101081.53;;;10.92;73.03
49461;BME280;35355;49.198;-0.368;2024-02-21T07:48:55;101087.81;;;10.92;72.63
49461;BME280;35355;49.198;-0.368;2024-02-21T07:51:21;101076.09;;;10.92;72.67
49461;BME280;35355;49.198;-0.368;2024-02-21T07:53:46;101073.91;;;10.94;72.54
49461;BME280;35355;49.198;-0.368;2024-02-21T07:56:13;101063.84;;;10.94;72.51
49461;BME280;35355;49.198;-0.368;2024-02-21T07:58:39;101065.72;;;10.94;72.63
49461;BME280;35355;49.198;-0.368;2024-02-21T08:01:05;101052.31;;;10.92;72.74
49461;BME280;35355;49.198;-0.368;2024-02-21T08:03:30;101047.69;;;10.93;72.53
49461;BME280;35355;49.198;-0.368;2024-02-21T08:05:55;101041.41;;;10.92;72.73
49461;BME280;35355;49.198;-0.368;2024-02-21T08:08:21;101041.41;;;10.92;72.82
49461;BME280;35355;49.198;-0.368;2024-02-21T08:10:48;101032.38;;;10.92;72.91
49461;BME280;35355;49.198;-0.368;2024-02-21T08:13:14;101032.38;;;10.92;72.70
49461;BME280;35355;49.198;-0.368;2024-02-21T08:15:39;101031.56;;;10.91;72.82
49461;BME280;35355;49.198;-0.368;2024-02-21T08:18:07;101015.69;;;10.88;72.53
49461;BME280;35355;49.198;-0.368;2024-02-21T08:20:32;101017.66;;;10.93;73.26
49461;BME280;35355;49.198;-0.368;2024-02-21T08:22:58;101013.81;;;10.94;72.97
49461;BME280;35355;49.198;-0.368;2024-02-21T08:25:23;101019.03;;;10.95;73.22
49461;BME280;35355;49.198;-0.368;2024-02-21T08:27:49;101015.22;;;10.96;72.94
49461;BME280;35355;49.198;-0.368;2024-02-21T08:30:14;101013.03;;;10.98;73.00
49461;BME280;35355;49.198;-0.368;2024-02-21T08:32:40;101003.78;;;10.99;72.92
49461;BME280;35355;49.198;-0.368;2024-02-21T08:35:05;100989.31;;;10.99;72.79
49461;BME280;35355;49.198;-0.368;2024-02-21T08:37:31;100987.41;;;10.99;73.06
49461;BME280;35355;49.198;-0.368;2024-02-21T08:39:56;100980.84;;;11.00;73.16
49461;BME280;35355;49.198;-0.368;2024-02-21T08:42:22;100974.31;;;11.01;73.10
49461;BME280;35355;49.198;-0.368;2024-02-21T08:44:47;100961.22;;;11.03;73.13
49461;BME280;35355;49.198;-0.368;2024-02-21T08:47:12;100970.81;;;11.06;72.98
49461;BME280;35355;49.198;-0.368;2024-02-21T08:49:38;100961.78;;;11.05;73.32
49461;BME280;35355;49.198;-0.368;2024-02-21T08:52:04;100952.50;;;11.06;73.23
49461;BME280;35355;49.198;-0.368;2024-02-21T08:54:30;100957.16;;;11.06;73.03
49461;BME280;35355;49.198;-0.368;2024-02-21T08:56:56;100950.31;;;11.09;73.33
49461;BME280;35355;49.198;-0.368;2024-02-21T08:59:21;100945.69;;;11.09;73.10
49461;BME280;35355;49.198;-0.368;2024-02-21T09:01:47;100948.16;;;11.11;73.58
49461;BME280;35355;49.198;-0.368;2024-02-21T09:04:12;100939.72;;;11.12;73.32
49461;BME280;35355;49.198;-0.368;2024-02-21T09:06:37;100950.38;;;11.14;73.49
49461;BME280;35355;49.198;-0.368;2024-02-21T09:09:07;100939.44;;;11.14;73.24
49461;BME280;35355;49.198;-0.368;2024-02-21T09:11:33;100948.72;;;11.13;73.53
49461;BME280;35355;49.198;-0.368;2024-02-21T09:13:59;100935.31;;;11.11;73.76
49461;BME280;35355;49.198;-0.368;2024-02-21T09:16:25;100924.13;;;11.13;73.40
49461;BME280;35355;49.198;-0.368;2024-02-21T09:18:50;100913.47;;;11.11;73.76
49461;BME280;35355;49.198;-0.368;2024-02-21T09:21:15;100918.41;;;11.14;73.87
49461;BME280;35355;49.198;-0.368;2024-02-21T09:23:41;100908.31;;;11.15;73.94
49461;BME280;35355;49.198;-0.368;2024-02-21T09:26:06;100896.28;;;11.16;73.82
49461;BME280;35355;49.198;-0.368;2024-02-21T09:28:32;100897.41;;;11.15;74.27
49461;BME280;35355;49.198;-0.368;2024-02-21T09:30:59;100886.47;;;11.15;73.96
49461;BME280;35355;49.198;-0.368;2024-02-21T09:33:24;100882.38;;;11.17;74.15
49461;BME280;35355;49.198;-0.368;2024-02-21T09:35:50;100884.84;;;11.19;74.44
49461;BME280;35355;49.198;-0.368;2024-02-21T09:38:15;100877.75;;;11.18;74.55
49461;BME280;35355;49.198;-0.368;2024-02-21T09:40:40;100867.94;;;11.22;74.53
49461;BME280;35355;49.198;-0.368;2024-02-21T09:43:07;100865.22;;;11.22;74.37
49461;BME280;35355;49.198;-0.368;2024-02-21T09:45:33;100860.56;;;11.22;74.59
49461;BME280;35355;49.198;-0.368;2024-02-21T09:48:32;100849.38;;;11.24;74.39
49461;BME280;35355;49.198;-0.368;2024-02-21T09:51:01;100842.81;;;11.25;74.59
49461;BME280;35355;49.198;-0.368;2024-02-21T09:53:27;100831.38;;;11.28;74.48
49461;BME280;35355;49.198;-0.368;2024-02-21T09:55:54;100825.63;;;11.30;74.45
49461;BME280;35355;49.198;-0.368;2024-02-21T09:58:20;100828.09;;;11.31;74.86
49461;BME280;35355;49.198;-0.368;2024-02-21T10:00:46;100822.91;;;11.35;74.78
49461;BME280;35355;49.198;-0.368;2024-02-21T10:03:12;100811.16;;;11.34;74.35
49461;BME280;35355;49.198;-0.368;2024-02-21T10:05:38;100807.38;;;11.35;74.89
49461;BME280;35355;49.198;-0.368;2024-02-21T10:08:04;100785.50;;;11.35;74.70
49461;BME280;35355;49.198;-0.368;2024-02-21T10:10:40;100780.03;;;11.35;74.76
49461;BME280;35355;49.198;-0.368;2024-02-21T10:13:05;100781.66;;;11.36;75.12
49461;BME280;35355;49.198;-0.368;2024-02-21T10:15:30;100759.78;;;11.36;74.66
49461;BME280;35355;49.198;-0.368;2024-02-21T10:17:59;100758.16;;;11.35;74.91
49461;BME280;35355;49.198;-0.368;2024-02-21T10:20:25;100759.78;;;11.36;74.97
49461;BME280;35355;49.198;-0.368;2024-02-21T10:23:03;100740.66;;;11.36;74.86
49461;BME280;35355;49.198;-0.368;2024-02-21T10:25:36;100735.19;;;11.31;75.22
49461;BME280;35355;49.198;-0.368;2024-02-21T10:28:06;100733.00;;;11.33;75.36
49461;BME280;35355;49.198;-0.368;2024-02-21T10:30:32;100718.53;;;11.33;74.75
49461;BME280;35355;49.198;-0.368;2024-02-21T10:32:57;100717.44;;;11.34;75.21
49461;BME280;35355;49.198;-0.368;2024-02-21T10:35:31;100705.69;;;11.33;74.78
49461;BME280;35355;49.198;-0.368;2024-02-21T10:37:57;100692.59;;;11.35;75.04
49461;BME280;35355;49.198;-0.368;2024-02-21T10:40:28;100694.47;;;11.35;75.29
49461;BME280;35355;49.198;-0.368;2024-02-21T10:42:58;100705.72;;;11.38;75.14
49461;BME280;35355;49.198;-0.368;2024-02-21T10:45:44;100696.97;;;11.41;75.48
49461;BME280;35355;49.198;-0.368;2024-02-21T10:48:14;100690.41;;;11.43;75.13
49461;BME280;35355;49.198;-0.368;2024-02-21T10:51:12;100686.59;;;11.44;74.94
49461;BME280;35355;49.198;-0.368;2024-02-21T10:54:20;100679.22;;;11.44;75.47
49461;BME280;35355;49.198;-0.368;2024-02-21T10:56:49;100680.59;;;11.52;75.23
49461;BME280;35355;49.198;-0.368;2024-02-21T10:59:17;100664.47;;;11.55;75.43
49461;BME280;35355;49.198;-0.368;2024-02-21T11:01:43;100662.03;;;11.59;75.83
49461;BME280;35355;49.198;-0.368;2024-02-21T11:04:09;100666.69;;;11.64;75.61
49461;BME280;35355;49.198;-0.368;2024-02-21T11:06:38;100656.00;;;11.67;75.26
49461;BME280;35355;49.198;-0.368;2024-02-21T11:09:05;100645.66;;;11.69;75.45
49461;BME280;35355;49.198;-0.368;2024-02-21T11:11:41;100644.00;;;11.73;75.14
49461;BME280;35355;49.198;-0.368;2024-02-21T11:14:09;100643.19;;;11.78;75.00
49461;BME280;35355;49.198;-0.368;2024-02-21T11:16:37;100636.91;;;11.83;74.96
49461;BME280;35355;49.198;-0.368;2024-02-21T11:19:10;100629.78;;;11.87;75.21
49461;BME280;35355;49.198;-0.368;2024-02-21T11:21:43;100621.06;;;11.90;75.19
49461;BME280;35355;49.198;-0.368;2024-02-21T11:24:09;100621.34;;;11.93;75.00
49461;BME280;35355;49.198;-0.368;2024-02-21T11:26:37;100616.13;;;11.97;75.04
49461;BME280;35355;49.198;-0.368;2024-02-21T11:29:02;100606.84;;;11.98;75.21
49461;BME280;35355;49.198;-0.368;2024-02-21T11:31:43;100605.75;;;11.99;75.01
49461;BME280;35355;49.198;-0.368;2024-02-21T11:34:10;100595.34;;;12.01;74.93
49461;BME280;35355;49.198;-0.368;2024-02-21T11:36:36;100590.72;;;12.02;75.34
49461;BME280;35355;49.198;-0.368;2024-02-21T11:39:04;100588.50;;;12.04;74.90
49461;BME280;35355;49.198;-0.368;2024-02-21T11:41:31;100588.25;;;12.05;75.33
49461;BME280;35355;49.198;-0.368;2024-02-21T11:43:56;100582.50;;;12.07;75.20
49461;BME280;35355;49.198;-0.368;2024-02-21T11:46:21;100570.47;;;12.08;74.99
49461;BME280;35355;49.198;-0.368;2024-02-21T11:48:47;100568.53;;;12.08;75.60
49461;BME280;35355;49.198;-0.368;2024-02-21T11:51:24;100568.53;;;12.08;75.34
49461;BME280;35355;49.198;-0.368;2024-02-21T11:53:52;100563.06;;;12.08;75.47
49461;BME280;35355;49.198;-0.368;2024-02-21T11:56:18;100551.84;;;12.10;75.68
49461;BME280;35355;49.198;-0.368;2024-02-21T11:58:48;100544.72;;;12.09;75.60
49461;BME280;35355;49.198;-0.368;2024-02-21T12:01:14;100538.72;;;12.12;75.29
49461;BME280;35355;49.198;-0.368;2024-02-21T12:03:39;100536.22;;;12.10;75.35
49461;BME280;35355;49.198;-0.368;2024-02-21T12:06:07;100522.56;;;12.10;75.33
49461;BME280;35355;49.198;-0.368;2024-02-21T12:08:42;100512.72;;;12.09;75.69
49461;BME280;35355;49.198;-0.368;2024-02-21T12:11:21;100512.72;;;12.09;75.79
49461;BME280;35355;49.198;-0.368;2024-02-21T12:14:03;100511.88;;;12.09;75.92
49461;BME280;35355;49.198;-0.368;2024-02-21T12:16:30;100501.22;;;12.07;75.65
49461;BME280;35355;49.198;-0.368;2024-02-21T12:18:59;100496.88;;;12.06;75.79
49461;BME280;35355;49.198;-0.368;2024-02-21T12:21:32;100486.75;;;12.07;75.98
49461;BME280;35355;49.198;-0.368;2024-02-21T12:24:00;100489.47;;;12.07;76.09
49461;BME280;35355;49.198;-0.368;2024-02-21T12:26:25;100480.47;;;12.06;75.78
49461;BME280;35355;49.198;-0.368;2024-02-21T12:28:53;100481.53;;;12.05;76.28
49461;BME280;35355;49.198;-0.368;2024-02-21T12:31:18;100464.88;;;12.02;75.85
49461;BME280;35355;49.198;-0.368;2024-02-21T12:33:43;100462.44;;;12.00;76.03
49461;BME280;35355;49.198;-0.368;2024-02-21T12:36:09;100460.78;;;11.99;76.02
49461;BME280;35355;49.198;-0.368;2024-02-21T12:38:35;100453.66;;;11.98;76.41